sensor_id;sensor_type;location;lat;lon;timestamp;pressure;altitude;pressure_sealevel;temperature;humidity
829;BME280;396;52.558;13.188;2023-02-19T00:02:04;100919.09;;;6.25;100.00
829;BME280;396;52.558;13.188;2023-02-19T00:04:31;100918.00;;;6.16;100.00
829;BME280;396;52.558;13.188;2023-02-19T00:06:57;100929.81;;;6.15;100.00
829;BME280;396;52.558;13.188;2023-02-19T00:09:25;100920.16;;;6.19;100.00
829;BME280;396;52.558;13.188;2023-02-19T00:11:52;100920.72;;;6.21;100.00
829;BME280;396;52.558;13.188;2023-02-19T00:14:20;100920.69;;;6.16;100.00
829;BME280;396;52.558;13.188;2023-02-19T00:16:47;100915.88;;;6.28;100.00
829;BME280;396;52.558;13.188;2023-02-19T00:19:19;100921.81;;;6.30;100.00
829;BME280;396;52.558;13.188;2023-02-19T00:21:46;100925.31;;;6.31;100.00
829;BME280;396;52.558;13.188;2023-02-19T00:24:13;100916.16;;;6.27;100.00
829;BME280;396;52.558;13.188;2023-02-19T00:26:42;100915.38;;;6.37;100.00
829;BME280;396;52.558;13.188;2023-02-19T00:29:12;100912.94;;;6.35;100.00
829;BME280;396;52.558;13.188;2023-02-19T00:31:39;100905.41;;;6.32;100.00
829;BME280;396;52.558;13.188;2023-02-19T00:34:06;100899.50;;;6.35;100.00
829;BME280;396;52.558;13.188;2023-02-19T00:36:36;100904.06;;;6.29;100.00
829;BME280;396;52.558;13.188;2023-02-19T00:39:03;100893.31;;;6.29;100.00
829;BME280;396;52.558;13.188;2023-02-19T00:41:30;100889.81;;;6.29;100.00
829;BME280;396;52.558;13.188;2023-02-19T00:44:00;100897.03;;;6.23;100.00
829;BME280;396;52.558;13.188;2023-02-19T00:46:29;100897.03;;;6.23;100.00
829;BME280;396;52.558;13.188;2023-02-19T00:48:56;100890.84;;;6.18;100.00
829;BME280;396;52.558;13.188;2023-02-19T00:51:24;100888.94;;;6.13;100.00
829;BME280;396;52.558;13.188;2023-02-19T00:53:52;100885.16;;;6.14;100.00
829;BME280;396;52.558;13.188;2023-02-19T00:56:19;100887.88;;;6.19;100.00
829;BME280;396;52.558;13.188;2023-02-19T00:58:46;100885.19;;;6.19;100.00
829;BME280;396;52.558;13.188;2023-02-19T01:01:14;100888.97;;;6.23;100.00
829;BME280;396;52.558;13.188;2023-02-19T01:03:41;100877.16;;;6.24;100.00
829;BME280;396;52.558;13.188;2023-02-19T01:06:09;100878.16;;;6.03;100.00
829;BME280;396;52.558;13.188;2023-02-19T01:08:36;100878.69;;;6.05;100.00
829;BME280;396;52.558;13.188;2023-02-19T01:11:04;100869.28;;;6.07;100.00
829;BME280;396;52.558;13.188;2023-02-19T01:13:31;100867.94;;;6.10;100.00
829;BME280;396;52.558;13.188;2023-02-19T01:16:02;100863.13;;;6.07;100.00
829;BME280;396;52.558;13.188;2023-02-19T01:18:31;100853.97;;;6.08;100.00
829;BME280;396;52.558;13.188;2023-02-19T01:20:58;100853.41;;;6.06;100.00
829;BME280;396;52.558;13.188;2023-02-19T01:23:25;100842.63;;;6.01;100.00
829;BME280;396;52.558;13.188;2023-02-19T01:25:51;100835.91;;;5.93;100.00
829;BME280;396;52.558;13.188;2023-02-19T01:28:18;100823.53;;;5.92;100.00
829;BME280;396;52.558;13.188;2023-02-19T01:30:44;100832.91;;;5.90;100.00
829;BME280;396;52.558;13.188;2023-02-19T01:33:11;100839.09;;;5.90;100.00
829;BME280;396;52.558;13.188;2023-02-19T01:35:39;100838.84;;;5.92;100.00
829;BME280;396;52.558;13.188;2023-02-19T01:38:06;100839.41;;;5.94;100.00
829;BME280;396;52.558;13.188;2023-02-19T01:40:33;100829.69;;;5.93;100.00
829;BME280;396;52.558;13.188;2023-02-19T01:42:59;100831.34;;;5.94;100.00
829;BME280;396;52.558;13.188;2023-02-19T01:45:28;100835.59;;;5.90;100.00
829;BME280;396;52.558;13.188;2023-02-19T01:48:02;100831.03;;;5.90;100.00
829;BME280;396;52.558;13.188;2023-02-19T01:50:34;100821.06;;;5.91;100.00
829;BME280;396;52.558;13.188;2023-02-19T01:53:05;100814.66;;;5.92;100.00
829;BME280;396;52.558;13.188;2023-02-19T01:55:34;100813.00;;;5.86;100.00
829;BME280;396;52.558;13.188;2023-02-19T01:58:02;100817.28;;;5.81;100.00
829;BME280;396;52.558;13.188;2023-02-19T02:00:28;100801.66;;;5.78;100.00
829;BME280;396;52.558;13.188;2023-02-19T02:02:56;100801.13;;;5.71;100.00
829;BME280;396;52.558;13.188;2023-02-19T02:05:52;100791.44;;;5.75;100.00
829;BME280;396;52.558;13.188;2023-02-19T02:08:22;100797.91;;;5.74;100.00
829;BME280;396;52.558;13.188;2023-02-19T02:11:07;100801.09;;;5.66;100.00
829;BME280;396;52.558;13.188;2023-02-19T02:13:35;100808.31;;;5.61;100.00
829;BME280;396;52.558;13.188;2023-02-19T02:16:15;100800.88;;;5.78;100.00
829;BME280;396;52.558;13.188;2023-02-19T02:18:53;100799.78;;;5.79;100.00
829;BME280;396;52.558;13.188;2023-02-19T02:21:48;100803.28;;;5.74;100.00
829;BME280;396;52.558;13.188;2023-02-19T02:24:41;100805.44;;;5.77;100.00
829;BME280;396;52.558;13.188;2023-02-19T02:27:40;100801.16;;;5.76;100.00
829;BME280;396;52.558;13.188;2023-02-19T02:30:16;100801.66;;;5.68;100.00
829;BME280;396;52.558;13.188;2023-02-19T02:32:51;100806.75;;;5.70;100.00
829;BME280;396;52.558;13.188;2023-02-19T02:35:21;100795.19;;;5.64;100.00
829;BME280;396;52.558;13.188;2023-02-19T02:37:49;100793.31;;;5.70;100.00
829;BME280;396;52.558;13.188;2023-02-19T02:40:17;100797.88;;;5.64;100.00
829;BME280;396;52.558;13.188;2023-02-19T02:42:44;100799.50;;;5.70;100.00
829;BME280;396;52.558;13.188;2023-02-19T02:45:29;100794.13;;;5.70;100.00
829;BME280;396;52.558;13.188;2023-02-19T02:48:25;100804.31;;;5.63;100.00
829;BME280;396;52.558;13.188;2023-02-19T02:50:55;100802.13;;;5.55;100.00
829;BME280;396;52.558;13.188;2023-02-19T02:53:26;100800.22;;;5.50;100.00
829;BME280;396;52.558;13.188;2023-02-19T02:56:14;100800.69;;;5.37;100.00
829;BME280;396;52.558;13.188;2023-02-19T02:58:42;100808.72;;;5.32;100.00
829;BME280;396;52.558;13.188;2023-02-19T03:01:14;100800.91;;;5.25;100.00
829;BME280;396;52.558;13.188;2023-02-19T03:04:02;100806.81;;;5.27;100.00
829;BME280;396;52.558;13.188;2023-02-19T03:06:32;100803.56;;;5.25;100.00
829;BME280;396;52.558;13.188;2023-02-19T03:09:06;100806.03;;;5.27;100.00
829;BME280;396;52.558;13.188;2023-02-19T03:11:37;100815.41;;;5.29;100.00
829;BME280;396;52.558;13.188;2023-02-19T03:14:26;100819.41;;;5.22;100.00
829;BME280;396;52.558;13.188;2023-02-19T03:17:17;100821.25;;;5.16;100.00
829;BME280;396;52.558;13.188;2023-02-19T03:20:06;100828.75;;;5.14;100.00
829;BME280;396;52.558;13.188;2023-02-19T03:22:35;100827.06;;;5.03;100.00
829;BME280;396;52.558;13.188;2023-02-19T03:25:08;100832.59;;;4.91;100.00
829;BME280;396;52.558;13.188;2023-02-19T03:27:53;100826.94;;;4.83;100.00
829;BME280;396;52.558;13.188;2023-02-19T03:30:24;100824.78;;;4.85;100.00
829;BME280;396;52.558;13.188;2023-02-19T03:32:58;100824.44;;;4.76;100.00
829;BME280;396;52.558;13.188;2023-02-19T03:35:29;100830.16;;;4.52;100.00
829;BME280;396;52.558;13.188;2023-02-19T03:38:01;100828.69;;;4.40;100.00
829;BME280;396;52.558;13.188;2023-02-19T03:40:33;100829.09;;;4.26;100.00
829;BME280;396;52.558;13.188;2023-02-19T03:43:11;100833.66;;;4.26;100.00
829;BME280;396;52.558;13.188;2023-02-19T03:45:47;100832.72;;;4.15;100.00
829;BME280;396;52.558;13.188;2023-02-19T03:48:27;100829.28;;;4.20;100.00
829;BME280;396;52.558;13.188;2023-02-19T03:51:06;100839.59;;;4.06;100.00
829;BME280;396;52.558;13.188;2023-02-19T03:53:47;100840.50;;;3.90;100.00
829;BME280;396;52.558;13.188;2023-02-19T03:56:23;100851.13;;;3.85;100.00
829;BME280;396;52.558;13.188;2023-02-19T03:58:56;100850.84;;;3.81;100.00
829;BME280;396;52.558;13.188;2023-02-19T04:01:27;100854.09;;;3.83;100.00
829;BME280;396;52.558;13.188;2023-02-19T04:04:02;100849.31;;;3.85;100.00
829;BME280;396;52.558;13.188;2023-02-19T04:06:31;100858.06;;;3.80;100.00
829;BME280;396;52.558;13.188;2023-02-19T04:09:01;100852.22;;;3.84;100.00
829;BME280;396;52.558;13.188;2023-02-19T04:11:30;100853.66;;;3.91;100.00
829;BME280;396;52.558;13.188;2023-02-19T04:14:00;100850.34;;;3.84;100.00
829;BME280;396;52.558;13.188;2023-02-19T04:16:32;100852.03;;;3.90;100.00
829;BME280;396;52.558;13.188;2023-02-19T04:19:06;100857.13;;;3.70;100.00
829;BME280;396;52.558;13.188;2023-02-19T04:21:36;100870.13;;;3.61;100.00
829;BME280;396;52.558;13.188;2023-02-19T04:24:07;100871.19;;;3.60;100.00
829;BME280;396;52.558;13.188;2023-02-19T04:26:35;100869.88;;;3.63;100.00
829;BME280;396;52.558;13.188;2023-02-19T04:29:02;100874.22;;;3.47;100.00
829;BME280;396;52.558;13.188;2023-02-19T04:31:30;100878.09;;;3.56;100.00
829;BME280;396;52.558;13.188;2023-02-19T04:34:01;100880.53;;;3.58;100.00
829;BME280;396;52.558;13.188;2023-02-19T04:36:28;100885.22;;;3.67;100.00
829;BME280;396;52.558;13.188;2023-02-19T04:38:55;100881.50;;;3.68;100.00
829;BME280;396;52.558;13.188;2023-02-19T04:41:22;100884.25;;;3.73;100.00
829;BME280;396;52.558;13.188;2023-02-19T04:43:48;100882.97;;;3.59;100.00
829;BME280;396;52.558;13.188;2023-02-19T04:46:15;100884.13;;;3.46;100.00
829;BME280;396;52.558;13.188;2023-02-19T04:48:42;100886.66;;;3.36;100.00
829;BME280;396;52.558;13.188;2023-02-19T04:51:10;100889.31;;;3.36;100.00
829;BME280;396;52.558;13.188;2023-02-19T04:53:36;100894.09;;;3.51;100.00
829;BME280;396;52.558;13.188;2023-02-19T04:56:07;100885.44;;;3.44;100.00
829;BME280;396;52.558;13.188;2023-02-19T04:58:34;100894.34;;;3.49;100.00
829;BME280;396;52.558;13.188;2023-02-19T05:01:01;100888.81;;;3.56;100.00
829;BME280;396;52.558;13.188;2023-02-19T05:03:27;100890.06;;;3.70;100.00
829;BME280;396;52.558;13.188;2023-02-19T05:05:54;100896.25;;;3.71;100.00
829;BME280;396;52.558;13.188;2023-02-19T05:08:22;100904.69;;;3.63;100.00
829;BME280;396;52.558;13.188;2023-02-19T05:10:49;100904.25;;;3.49;100.00
829;BME280;396;52.558;13.188;2023-02-19T05:13:15;100897.53;;;3.46;100.00
829;BME280;396;52.558;13.188;2023-02-19T05:15:43;100901.34;;;3.34;100.00
829;BME280;396;52.558;13.188;2023-02-19T05:18:18;100897.53;;;3.29;100.00
829;BME280;396;52.558;13.188;2023-02-19T05:20:45;100892.53;;;3.16;100.00
829;BME280;396;52.558;13.188;2023-02-19T05:23:12;100899.97;;;3.14;100.00
829;BME280;396;52.558;13.188;2023-02-19T05:25:39;100901.69;;;3.20;100.00
829;BME280;396;52.558;13.188;2023-02-19T05:28:06;100895.13;;;3.28;100.00
829;BME280;396;52.558;13.188;2023-02-19T05:30:42;100896.00;;;3.34;100.00
829;BME280;396;52.558;13.188;2023-02-19T05:33:09;100901.41;;;3.39;100.00
829;BME280;396;52.558;13.188;2023-02-19T05:35:39;100892.31;;;3.40;100.00
829;BME280;396;52.558;13.188;2023-02-19T05:38:07;100903.03;;;3.40;100.00
829;BME280;396;52.558;13.188;2023-02-19T05:40:34;100908.97;;;3.42;100.00
829;BME280;396;52.558;13.188;2023-02-19T05:43:02;100902.56;;;3.43;100.00
829;BME280;396;52.558;13.188;2023-02-19T05:45:29;100910.91;;;3.46;100.00
829;BME280;396;52.558;13.188;2023-02-19T05:47:56;100908.63;;;3.55;100.00
829;BME280;396;52.558;13.188;2023-02-19T05:50:22;100909.50;;;3.61;100.00
829;BME280;396;52.558;13.188;2023-02-19T05:52:49;100913.31;;;3.65;100.00
829;BME280;396;52.558;13.188;2023-02-19T05:55:16;100903.47;;;3.70;100.00
829;BME280;396;52.558;13.188;2023-02-19T05:57:45;100906.78;;;3.77;100.00
829;BME280;396;52.558;13.188;2023-02-19T06:00:15;100905.41;;;3.75;100.00
829;BME280;396;52.558;13.188;2023-02-19T06:02:42;100906.28;;;3.80;100.00
829;BME280;396;52.558;13.188;2023-02-19T06:05:09;100914.25;;;3.75;100.00
829;BME280;396;52.558;13.188;2023-02-19T06:07:36;100917.13;;;3.69;100.00
829;BME280;396;52.558;13.188;2023-02-19T06:10:04;100920.13;;;3.72;100.00
829;BME280;396;52.558;13.188;2023-02-19T06:12:31;100906.72;;;3.72;100.00
829;BME280;396;52.558;13.188;2023-02-19T06:14:58;100903.25;;;3.72;100.00
829;BME280;396;52.558;13.188;2023-02-19T06:17:25;100894.94;;;3.73;100.00
829;BME280;396;52.558;13.188;2023-02-19T06:19:52;100900.78;;;3.70;100.00
829;BME280;396;52.558;13.188;2023-02-19T06:22:19;100902.41;;;3.71;100.00
829;BME280;396;52.558;13.188;2023-02-19T06:24:46;100912.56;;;3.69;100.00
829;BME280;396;52.558;13.188;2023-02-19T06:27:12;100925.97;;;3.69;100.00
829;BME280;396;52.558;13.188;2023-02-19T06:29:39;100932.44;;;3.73;100.00
829;BME280;396;52.558;13.188;2023-02-19T06:32:06;100945.28;;;3.71;100.00
829;BME280;396;52.558;13.188;2023-02-19T06:34:35;100948.84;;;3.77;100.00
829;BME280;396;52.558;13.188;2023-02-19T06:37:02;100954.16;;;3.72;100.00
829;BME280;396;52.558;13.188;2023-02-19T06:39:28;100968.34;;;3.72;100.00
829;BME280;396;52.558;13.188;2023-02-19T06:41:55;100974.00;;;3.76;100.00
829;BME280;396;52.558;13.188;2023-02-19T06:44:22;100975.66;;;3.77;100.00
829;BME280;396;52.558;13.188;2023-02-19T06:46:49;100977.81;;;3.80;100.00
829;BME280;396;52.558;13.188;2023-02-19T06:49:16;100981.81;;;3.77;100.00
829;BME280;396;52.558;13.188;2023-02-19T06:51:44;100980.19;;;3.76;100.00
829;BME280;396;52.558;13.188;2023-02-19T06:54:11;100985.72;;;3.70;100.00
829;BME280;396;52.558;13.188;2023-02-19T06:56:39;100998.53;;;3.68;100.00
829;BME280;396;52.558;13.188;2023-02-19T06:59:09;100998.69;;;3.61;100.00
829;BME280;396;52.558;13.188;2023-02-19T07:01:36;101001.69;;;3.65;100.00
829;BME280;396;52.558;13.188;2023-02-19T07:04:03;101004.31;;;3.60;100.00
829;BME280;396;52.558;13.188;2023-02-19T07:06:30;101007.31;;;3.63;100.00
829;BME280;396;52.558;13.188;2023-02-19T07:08:58;101008.13;;;3.64;100.00
829;BME280;396;52.558;13.188;2023-02-19T07:11:28;101007.13;;;3.70;100.00
829;BME280;396;52.558;13.188;2023-02-19T07:13:55;101017.84;;;3.70;100.00
829;BME280;396;52.558;13.188;2023-02-19T07:16:22;101018.19;;;3.73;100.00
829;BME280;396;52.558;13.188;2023-02-19T07:18:49;101022.41;;;3.69;100.00
829;BME280;396;52.558;13.188;2023-02-19T07:21:16;101019.97;;;3.68;100.00
829;BME280;396;52.558;13.188;2023-02-19T07:23:44;101025.63;;;3.71;100.00
829;BME280;396;52.558;13.188;2023-02-19T07:26:13;101031.31;;;3.75;100.00
829;BME280;396;52.558;13.188;2023-02-19T07:28:40;101032.84;;;3.71;100.00
829;BME280;396;52.558;13.188;2023-02-19T07:31:07;101036.84;;;3.68;100.00
829;BME280;396;52.558;13.188;2023-02-19T07:33:34;101044.81;;;3.63;100.00
829;BME280;396;52.558;13.188;2023-02-19T07:36:00;101043.81;;;3.69;100.00
829;BME280;396;52.558;13.188;2023-02-19T07:38:27;101046.59;;;3.74;100.00
829;BME280;396;52.558;13.188;2023-02-19T07:40:55;101056.50;;;3.74;100.00
829;BME280;396;52.558;13.188;2023-02-19T07:43:25;101051.47;;;3.77;100.00
829;BME280;396;52.558;13.188;2023-02-19T07:45:52;101048.19;;;3.75;100.00
829;BME280;396;52.558;13.188;2023-02-19T07:48:19;101062.19;;;3.77;100.00
829;BME280;396;52.558;13.188;2023-02-19T07:50:50;101072.91;;;3.77;100.00
829;BME280;396;52.558;13.188;2023-02-19T07:53:17;101080.69;;;3.79;100.00
829;BME280;396;52.558;13.188;2023-02-19T07:55:43;101095.13;;;3.78;100.00
829;BME280;396;52.558;13.188;2023-02-19T07:58:10;101093.81;;;3.80;100.00
829;BME280;396;52.558;13.188;2023-02-19T08:00:38;101098.47;;;3.85;100.00
829;BME280;396;52.558;13.188;2023-02-19T08:03:04;101106.00;;;3.88;100.00
829;BME280;396;52.558;13.188;2023-02-19T08:05:31;101103.91;;;3.90;100.00
829;BME280;396;52.558;13.188;2023-02-19T08:07:59;101112.78;;;3.91;100.00
829;BME280;396;52.558;13.188;2023-02-19T08:10:26;101115.66;;;3.89;100.00
829;BME280;396;52.558;13.188;2023-02-19T08:13:13;101120.81;;;3.91;100.00
829;BME280;396;52.558;13.188;2023-02-19T08:15:50;101128.59;;;3.92;100.00
829;BME280;396;52.558;13.188;2023-02-19T08:18:19;101130.53;;;3.97;100.00
829;BME280;396;52.558;13.188;2023-02-19T08:20:46;101138.31;;;3.98;100.00
829;BME280;396;52.558;13.188;2023-02-19T08:23:13;101140.44;;;3.96;100.00
829;BME280;396;52.558;13.188;2023-02-19T08:25:40;101152.78;;;3.97;100.00
829;BME280;396;52.558;13.188;2023-02-19T08:28:08;101150.19;;;4.02;100.00
829;BME280;396;52.558;13.188;2023-02-19T08:30:35;101163.50;;;3.97;100.00
829;BME280;396;52.558;13.188;2023-02-19T08:33:05;101168.72;;;4.04;100.00
829;BME280;396;52.558;13.188;2023-02-19T08:35:33;101171.75;;;4.08;100.00
829;BME280;396;52.558;13.188;2023-02-19T08:38:00;101168.88;;;4.14;100.00
829;BME280;396;52.558;13.188;2023-02-19T08:40:27;101172.84;;;4.12;100.00
829;BME280;396;52.558;13.188;2023-02-19T08:42:53;101178.63;;;4.20;100.00
829;BME280;396;52.558;13.188;2023-02-19T08:45:20;101187.59;;;4.26;100.00
829;BME280;396;52.558;13.188;2023-02-19T08:47:48;101181.97;;;4.27;100.00
829;BME280;396;52.558;13.188;2023-02-19T08:50:16;101190.41;;;4.36;100.00
829;BME280;396;52.558;13.188;2023-02-19T08:52:43;101203.34;;;4.39;100.00
829;BME280;396;52.558;13.188;2023-02-19T08:55:09;101205.28;;;4.44;100.00
829;BME280;396;52.558;13.188;2023-02-19T08:57:36;101204.97;;;4.40;100.00
829;BME280;396;52.558;13.188;2023-02-19T09:00:03;101200.06;;;4.37;100.00
829;BME280;396;52.558;13.188;2023-02-19T09:02:30;101212.59;;;4.48;100.00
829;BME280;396;52.558;13.188;2023-02-19T09:04:57;101204.16;;;4.57;100.00
829;BME280;396;52.558;13.188;2023-02-19T09:07:25;101225.44;;;4.46;100.00
829;BME280;396;52.558;13.188;2023-02-19T09:09:52;101215.09;;;4.55;100.00
829;BME280;396;52.558;13.188;2023-02-19T09:12:19;101210.94;;;4.64;100.00
829;BME280;396;52.558;13.188;2023-02-19T09:14:46;101210.31;;;4.74;100.00
829;BME280;396;52.558;13.188;2023-02-19T09:17:12;101219.31;;;4.85;100.00
829;BME280;396;52.558;13.188;2023-02-19T09:19:39;101221.56;;;4.93;100.00
829;BME280;396;52.558;13.188;2023-02-19T09:22:06;101226.00;;;5.04;100.00
829;BME280;396;52.558;13.188;2023-02-19T09:24:34;101236.25;;;5.07;100.00
829;BME280;396;52.558;13.188;2023-02-19T09:27:00;101229.69;;;4.98;100.00
829;BME280;396;52.558;13.188;2023-02-19T09:29:27;101239.25;;;5.11;100.00
829;BME280;396;52.558;13.188;2023-02-19T09:31:57;101234.81;;;5.21;100.00
829;BME280;396;52.558;13.188;2023-02-19T09:34:24;101251.34;;;5.13;100.00
829;BME280;396;52.558;13.188;2023-02-19T09:36:51;101244.56;;;5.05;100.00
829;BME280;396;52.558;13.188;2023-02-19T09:39:19;101252.56;;;5.00;100.00
829;BME280;396;52.558;13.188;2023-02-19T09:41:48;101254.31;;;5.12;100.00
829;BME280;396;52.558;13.188;2023-02-19T09:44:21;101251.69;;;5.17;100.00
829;BME280;396;52.558;13.188;2023-02-19T09:46:51;101259.66;;;5.12;100.00
829;BME280;396;52.558;13.188;2023-02-19T09:49:20;101256.94;;;5.28;99.11
829;BME280;396;52.558;13.188;2023-02-19T09:51:53;101268.19;;;5.25;98.39
829;BME280;396;52.558;13.188;2023-02-19T09:54:25;101273.63;;;5.30;96.71
829;BME280;396;52.558;13.188;2023-02-19T09:56:54;101280.75;;;5.42;97.42
829;BME280;396;52.558;13.188;2023-02-19T09:59:25;101287.06;;;5.52;97.57
829;BME280;396;52.558;13.188;2023-02-19T10:01:57;101275.00;;;5.55;94.64
829;BME280;396;52.558;13.188;2023-02-19T10:04:27;101284.19;;;5.59;93.78
829;BME280;396;52.558;13.188;2023-02-19T10:06:55;101285.31;;;5.63;94.99
829;BME280;396;52.558;13.188;2023-02-19T10:09:28;101287.25;;;5.68;93.54
829;BME280;396;52.558;13.188;2023-02-19T10:11:57;101298.25;;;5.66;91.75
829;BME280;396;52.558;13.188;2023-02-19T10:14:29;101299.31;;;5.65;90.77
829;BME280;396;52.558;13.188;2023-02-19T10:17:00;101303.94;;;5.70;93.58
829;BME280;396;52.558;13.188;2023-02-19T10:19:27;101321.88;;;5.86;93.20
829;BME280;396;52.558;13.188;2023-02-19T10:21:54;101318.69;;;5.89;91.57
829;BME280;396;52.558;13.188;2023-02-19T10:24:25;101318.78;;;5.94;91.81
829;BME280;396;52.558;13.188;2023-02-19T10:26:52;101321.63;;;6.10;91.08
829;BME280;396;52.558;13.188;2023-02-19T10:29:20;101327.44;;;6.01;87.39
829;BME280;396;52.558;13.188;2023-02-19T10:31:49;101323.91;;;5.96;86.39
829;BME280;396;52.558;13.188;2023-02-19T10:34:35;101328.47;;;5.95;85.71
829;BME280;396;52.558;13.188;2023-02-19T10:37:02;101340.44;;;6.10;85.09
829;BME280;396;52.558;13.188;2023-02-19T10:39:37;101350.38;;;6.31;87.51
829;BME280;396;52.558;13.188;2023-02-19T10:42:13;101347.53;;;6.43;85.04
829;BME280;396;52.558;13.188;2023-02-19T10:44:43;101348.88;;;6.45;87.03
829;BME280;396;52.558;13.188;2023-02-19T10:47:16;101354.03;;;6.47;85.75
829;BME280;396;52.558;13.188;2023-02-19T10:49:44;101354.94;;;6.57;80.90
829;BME280;396;52.558;13.188;2023-02-19T10:52:14;101369.59;;;6.45;80.17
829;BME280;396;52.558;13.188;2023-02-19T10:54:43;101364.03;;;6.51;80.45
829;BME280;396;52.558;13.188;2023-02-19T10:57:29;101368.00;;;6.44;82.46
829;BME280;396;52.558;13.188;2023-02-19T11:00:00;101382.59;;;6.53;81.24
829;BME280;396;52.558;13.188;2023-02-19T11:02:29;101390.63;;;6.48;76.98
829;BME280;396;52.558;13.188;2023-02-19T11:05:17;101400.34;;;6.81;77.70
829;BME280;396;52.558;13.188;2023-02-19T11:07:47;101405.47;;;7.10;77.80
829;BME280;396;52.558;13.188;2023-02-19T11:10:25;101391.75;;;7.16;76.16
829;BME280;396;52.558;13.188;2023-02-19T11:12:54;101399.88;;;7.21;76.14
829;BME280;396;52.558;13.188;2023-02-19T11:15:27;101421.41;;;7.16;75.23
829;BME280;396;52.558;13.188;2023-02-19T11:17:56;101414.44;;;7.20;73.04
829;BME280;396;52.558;13.188;2023-02-19T11:20:24;101418.50;;;7.23;73.78
829;BME280;396;52.558;13.188;2023-02-19T11:22:57;101423.44;;;7.36;71.11
829;BME280;396;52.558;13.188;2023-02-19T11:25:26;101413.47;;;7.37;73.35
829;BME280;396;52.558;13.188;2023-02-19T11:27:55;101415.06;;;7.32;72.74
829;BME280;396;52.558;13.188;2023-02-19T11:30:39;101416.22;;;7.47;71.79
829;BME280;396;52.558;13.188;2023-02-19T11:33:22;101431.63;;;7.51;70.52
829;BME280;396;52.558;13.188;2023-02-19T11:35:54;101431.63;;;7.51;72.67
829;BME280;396;52.558;13.188;2023-02-19T11:38:23;101428.25;;;7.66;71.30
829;BME280;396;52.558;13.188;2023-02-19T11:40:57;101445.66;;;8.01;70.70
829;BME280;396;52.558;13.188;2023-02-19T11:43:38;101428.72;;;8.99;66.47
829;BME280;396;52.558;13.188;2023-02-19T11:46:11;101429.72;;;9.64;59.68
829;BME280;396;52.558;13.188;2023-02-19T11:48:50;101422.22;;;9.35;59.17
829;BME280;396;52.558;13.188;2023-02-19T11:51:31;101426.19;;;9.69;59.20
829;BME280;396;52.558;13.188;2023-02-19T11:54:14;101429.81;;;10.24;59.81
829;BME280;396;52.558;13.188;2023-02-19T11:56:47;101431.78;;;11.07;57.81
829;BME280;396;52.558;13.188;2023-02-19T11:59:19;101439.63;;;10.69;54.38
829;BME280;396;52.558;13.188;2023-02-19T12:05:04;101455.69;;;8.73;59.38
829;BME280;396;52.558;13.188;2023-02-19T12:10:41;101450.03;;;9.67;58.30
829;BME280;396;52.558;13.188;2023-02-19T12:13:19;101454.63;;;9.46;58.04
829;BME280;396;52.558;13.188;2023-02-19T12:16:10;101457.75;;;10.14;53.98
829;BME280;396;52.558;13.188;2023-02-19T12:18:53;101457.28;;;9.92;55.72
829;BME280;396;52.558;13.188;2023-02-19T12:21:34;101464.09;;;9.38;57.08
829;BME280;396;52.558;13.188;2023-02-19T12:24:31;101465.44;;;9.51;55.83
829;BME280;396;52.558;13.188;2023-02-19T12:27:15;101460.59;;;9.43;55.53
829;BME280;396;52.558;13.188;2023-02-19T12:29:55;101463.56;;;9.00;57.65
829;BME280;396;52.558;13.188;2023-02-19T12:32:46;101468.91;;;8.75;58.94
829;BME280;396;52.558;13.188;2023-02-19T12:35:25;101486.69;;;8.03;60.17
829;BME280;396;52.558;13.188;2023-02-19T12:38:01;101478.25;;;7.89;62.65
829;BME280;396;52.558;13.188;2023-02-19T12:40:37;101473.28;;;8.18;61.60
829;BME280;396;52.558;13.188;2023-02-19T12:43:12;101478.59;;;7.98;61.06
829;BME280;396;52.558;13.188;2023-02-19T12:45:43;101486.78;;;7.39;61.59
829;BME280;396;52.558;13.188;2023-02-19T12:48:19;101478.56;;;7.18;63.18
829;BME280;396;52.558;13.188;2023-02-19T12:50:54;101487.47;;;7.24;62.98
829;BME280;396;52.558;13.188;2023-02-19T12:53:32;101488.50;;;7.50;62.98
829;BME280;396;52.558;13.188;2023-02-19T12:56:05;101482.41;;;8.07;63.05
829;BME280;396;52.558;13.188;2023-02-19T12:58:37;101497.66;;;8.33;61.84
829;BME280;396;52.558;13.188;2023-02-19T13:01:08;101500.06;;;7.82;61.60
829;BME280;396;52.558;13.188;2023-02-19T13:03:39;101492.38;;;7.64;62.80
829;BME280;396;52.558;13.188;2023-02-19T13:06:21;101502.78;;;7.88;63.29
829;BME280;396;52.558;13.188;2023-02-19T13:08:53;101503.63;;;8.41;61.70
829;BME280;396;52.558;13.188;2023-02-19T13:11:26;101508.19;;;9.23;57.69
829;BME280;396;52.558;13.188;2023-02-19T13:13:56;101505.19;;;9.81;57.27
829;BME280;396;52.558;13.188;2023-02-19T13:16:27;101520.59;;;10.81;53.64
829;BME280;396;52.558;13.188;2023-02-19T13:18:59;101524.47;;;11.48;51.43
829;BME280;396;52.558;13.188;2023-02-19T13:21:30;101509.34;;;11.37;50.24
829;BME280;396;52.558;13.188;2023-02-19T13:24:20;101517.94;;;11.83;49.35
829;BME280;396;52.558;13.188;2023-02-19T13:27:00;101530.41;;;11.16;47.75
829;BME280;396;52.558;13.188;2023-02-19T13:29:47;101520.00;;;10.09;50.16
829;BME280;396;52.558;13.188;2023-02-19T13:32:36;101522.47;;;9.03;54.06
829;BME280;396;52.558;13.188;2023-02-19T13:35:22;101515.84;;;8.58;57.43
829;BME280;396;52.558;13.188;2023-02-19T13:37:52;101513.38;;;8.42;58.34
829;BME280;396;52.558;13.188;2023-02-19T13:40:26;101513.69;;;8.03;58.76
829;BME280;396;52.558;13.188;2023-02-19T13:42:57;101518.41;;;7.80;59.71
829;BME280;396;52.558;13.188;2023-02-19T13:45:31;101509.41;;;7.70;60.65
829;BME280;396;52.558;13.188;2023-02-19T13:48:03;101523.50;;;7.45;62.13
829;BME280;396;52.558;13.188;2023-02-19T13:50:38;101534.38;;;7.55;59.91
829;BME280;396;52.558;13.188;2023-02-19T13:53:48;101522.84;;;8.02;60.36